createdAt,value
2017-10-31T00:01:15.249Z,96.50
2017-10-31T00:03:44.244Z,96.10
2017-10-31T00:06:12.643Z,96.10
2017-10-31T00:08:40.903Z,96.30
2017-10-31T00:11:09.155Z,96.50
2017-10-31T00:13:38.219Z,96.50
2017-10-31T00:16:06.575Z,96.40
2017-10-31T00:18:34.864Z,96.60
2017-10-31T00:21:03.123Z,96.90
2017-10-31T00:23:31.372Z,96.80
2017-10-31T00:25:59.655Z,97.30
2017-10-31T00:28:27.911Z,97.40
2017-10-31T00:30:56.967Z,97.10
2017-10-31T00:33:25.225Z,97.00
2017-10-31T00:35:53.461Z,97.20
2017-10-31T00:38:22.520Z,97.30
2017-10-31T00:40:50.811Z,97.00
2017-10-31T00:43:19.064Z,97.30
2017-10-31T00:45:48.039Z,97.20
2017-10-31T00:48:16.260Z,97.30
2017-10-31T00:50:44.530Z,97.20
2017-10-31T00:53:12.777Z,97.10
2017-10-31T00:55:41.039Z,97.00
2017-10-31T00:58:09.315Z,97.00
2017-10-31T01:00:38.323Z,97.10
2017-10-31T01:03:06.610Z,97.10
2017-10-31T01:05:34.850Z,97.10
2017-10-31T01:08:03.841Z,97.30
2017-10-31T01:10:32.879Z,97.40
2017-10-31T01:13:01.143Z,97.40
2017-10-31T01:15:29.370Z,97.50
2017-10-31T01:17:57.649Z,97.40
2017-10-31T01:20:25.886Z,97.40
2017-10-31T01:22:54.141Z,97.40
2017-10-31T01:25:22.437Z,97.40
2017-10-31T01:27:50.694Z,97.40
2017-10-31T01:30:19.701Z,97.60
2017-10-31T01:32:47.952Z,97.60
2017-10-31T01:35:16.975Z,97.50
2017-10-31T01:37:45.238Z,97.50
2017-10-31T01:40:13.481Z,97.40
2017-10-31T01:42:41.741Z,97.40
2017-10-31T01:45:10.008Z,97.40
2017-10-31T01:47:38.231Z,97.20
2017-10-31T01:50:07.286Z,97.10
2017-10-31T01:52:35.524Z,97.10
2017-10-31T01:55:03.808Z,97.20
2017-10-31T01:57:32.048Z,97.30
2017-10-31T02:00:01.092Z,96.80
2017-10-31T02:02:29.407Z,96.80
2017-10-31T02:04:57.657Z,96.70
2017-10-31T02:07:25.910Z,96.40
2017-10-31T02:09:54.148Z,96.50
2017-10-31T02:12:22.389Z,96.70
2017-10-31T02:14:50.649Z,96.80
2017-10-31T02:17:18.927Z,97.00
2017-10-31T02:19:47.159Z,97.00
2017-10-31T02:22:15.786Z,96.90
2017-10-31T02:24:44.059Z,97.10
2017-10-31T02:27:12.356Z,97.10
2017-10-31T02:29:41.500Z,97.00
2017-10-31T02:32:09.792Z,97.00
2017-10-31T02:34:38.089Z,97.30
2017-10-31T02:37:06.345Z,97.40
2017-10-31T02:39:34.630Z,97.50
2017-10-31T02:42:02.917Z,97.30
2017-10-31T02:44:31.171Z,97.40
2017-10-31T02:46:59.499Z,97.40
2017-10-31T02:49:27.719Z,97.60
2017-10-31T02:51:56.812Z,97.70
2017-10-31T02:54:25.828Z,97.30
2017-10-31T02:56:54.061Z,97.30
2017-10-31T02:59:22.331Z,97.30
2017-10-31T03:01:50.590Z,97.10
2017-10-31T03:04:18.837Z,97.10
2017-10-31T03:06:47.103Z,97.10
2017-10-31T03:09:16.264Z,97.10
2017-10-31T03:11:44.515Z,97.30
2017-10-31T03:14:13.691Z,97.30
2017-10-31T03:16:41.935Z,97.20
2017-10-31T03:19:11.021Z,97.40
2017-10-31T03:21:39.285Z,97.40
2017-10-31T03:24:07.538Z,97.40
2017-10-31T03:26:35.861Z,97.10
2017-10-31T03:29:04.080Z,97.10
2017-10-31T03:31:32.330Z,97.30
2017-10-31T03:34:00.606Z,97.30
2017-10-31T03:36:28.910Z,97.10
2017-10-31T03:38:57.174Z,97.10
2017-10-31T03:41:25.457Z,97.20
2017-10-31T03:43:53.731Z,97.10
2017-10-31T03:46:21.977Z,97.10
2017-10-31T03:48:50.226Z,97.10
2017-10-31T03:51:18.507Z,96.80
2017-10-31T03:53:47.757Z,96.80
2017-10-31T03:56:16.097Z,96.80
2017-10-31T03:58:44.323Z,97.20
2017-10-31T04:01:12.609Z,97.20
2017-10-31T04:03:40.890Z,97.30
2017-10-31T04:06:09.178Z,97.20
2017-10-31T04:08:37.467Z,97.50
2017-10-31T04:11:05.691Z,97.60
2017-10-31T04:13:33.938Z,97.50
2017-10-31T04:16:02.230Z,97.40
2017-10-31T04:18:30.467Z,97.30
2017-10-31T04:20:58.711Z,97.30
2017-10-31T04:23:27.015Z,97.20
2017-10-31T04:25:55.267Z,97.20
2017-10-31T04:28:24.252Z,97.40
2017-10-31T04:30:53.300Z,97.50
2017-10-31T04:33:21.545Z,97.50
2017-10-31T04:35:50.576Z,97.50
2017-10-31T04:38:19.332Z,97.50
2017-10-31T04:40:48.349Z,97.50
2017-10-31T04:43:16.593Z,97.40
2017-10-31T04:45:45.615Z,97.60
2017-10-31T04:48:13.854Z,97.60
2017-10-31T04:50:42.922Z,97.80
2017-10-31T04:53:11.165Z,97.70
2017-10-31T04:55:39.413Z,97.60
2017-10-31T04:58:07.691Z,97.70
2017-10-31T05:00:37.984Z,97.60
2017-10-31T05:03:07.007Z,97.60
2017-10-31T05:05:35.248Z,97.60
2017-10-31T05:08:03.527Z,97.90
2017-10-31T05:10:31.786Z,97.70
2017-10-31T05:13:00.944Z,97.70
2017-10-31T05:15:29.209Z,97.90
2017-10-31T05:17:58.214Z,97.90
2017-10-31T05:20:26.472Z,97.90
2017-10-31T05:22:55.484Z,97.80
2017-10-31T05:25:23.723Z,97.80
2017-10-31T05:27:52.001Z,97.80
2017-10-31T05:30:20.235Z,97.70
2017-10-31T05:32:48.508Z,97.40
2017-10-31T05:35:16.800Z,97.60
2017-10-31T05:37:45.054Z,97.70
2017-10-31T05:40:14.058Z,97.50
2017-10-31T05:42:42.308Z,97.50
2017-10-31T05:45:11.338Z,97.20
2017-10-31T05:47:39.578Z,97.20
2017-10-31T05:50:08.581Z,97.50
2017-10-31T05:52:37.599Z,97.00
2017-10-31T05:55:05.859Z,97.00
2017-10-31T05:57:34.118Z,97.10
2017-10-31T06:00:03.134Z,97.20
2017-10-31T06:02:31.423Z,97.20
2017-10-31T06:04:59.677Z,97.30
2017-10-31T06:07:28.680Z,97.60
2017-10-31T06:09:56.927Z,97.60
2017-10-31T06:12:25.202Z,97.50
2017-10-31T06:14:53.437Z,97.10
2017-10-31T06:17:21.650Z,97.10
2017-10-31T06:19:50.179Z,97.10
2017-10-31T06:22:24.195Z,97.20
2017-10-31T06:24:58.146Z,97.40
2017-10-31T06:27:32.160Z,97.60
2017-10-31T06:30:06.141Z,97.50
2017-10-31T06:32:34.420Z,97.70
2017-10-31T06:35:02.691Z,97.80
2017-10-31T06:37:30.920Z,97.80
2017-10-31T06:39:59.156Z,97.70
2017-10-31T06:42:27.382Z,97.80
2017-10-31T06:44:55.619Z,97.70
2017-10-31T06:47:23.871Z,97.90
2017-10-31T06:49:52.118Z,97.70
2017-10-31T06:52:21.606Z,97.20
2017-10-31T06:54:49.942Z,97.20
2017-10-31T06:57:18.207Z,97.40
2017-10-31T06:59:46.456Z,97.60
2017-10-31T07:02:14.688Z,97.20
2017-10-31T07:04:43.159Z,97.20
2017-10-31T07:07:11.422Z,97.00
2017-10-31T07:09:39.704Z,97.20
2017-10-31T07:12:07.931Z,97.20
2017-10-31T07:14:36.948Z,97.90
2017-10-31T07:17:06.261Z,97.20
2017-10-31T07:19:35.310Z,97.30
2017-10-31T07:22:03.573Z,97.30
2017-10-31T07:24:32.606Z,97.30
2017-10-31T07:27:00.874Z,97.30
2017-10-31T07:29:29.136Z,97.40
2017-10-31T07:31:57.409Z,97.60
2017-10-31T07:34:25.638Z,97.80
2017-10-31T07:36:53.933Z,97.60
2017-10-31T07:39:22.201Z,97.30
2017-10-31T07:41:50.447Z,97.00
2017-10-31T07:44:19.480Z,96.60
2017-10-31T07:46:47.975Z,96.50
2017-10-31T07:49:16.295Z,96.60
2017-10-31T07:51:44.581Z,96.80
2017-10-31T07:54:12.802Z,96.80
2017-10-31T07:56:41.090Z,96.50
2017-10-31T07:59:10.177Z,96.40
2017-10-31T08:01:38.423Z,96.60
2017-10-31T08:04:06.691Z,96.30
2017-10-31T08:06:35.708Z,96.30
2017-10-31T08:09:03.943Z,96.30
2017-10-31T08:11:33.000Z,96.10
2017-10-31T08:14:02.084Z,96.10
2017-10-31T08:16:30.318Z,96.10
2017-10-31T08:18:58.615Z,96.20
2017-10-31T08:21:26.906Z,96.00
2017-10-31T08:23:55.241Z,95.20
2017-10-31T08:26:23.519Z,95.20
2017-10-31T08:28:51.838Z,94.80
2017-10-31T08:31:20.106Z,95.50
2017-10-31T08:33:49.135Z,95.30
2017-10-31T08:36:17.372Z,95.30
2017-10-31T08:38:55.798Z,95.50
2017-10-31T08:41:25.618Z,94.40
2017-10-31T08:43:53.897Z,94.40
2017-10-31T08:46:22.205Z,93.70
2017-10-31T08:48:50.477Z,93.50
2017-10-31T08:51:18.764Z,93.20
2017-10-31T08:53:47.017Z,93.00
2017-10-31T08:56:15.286Z,92.80
2017-10-31T08:58:43.576Z,92.40
2017-10-31T09:01:11.839Z,93.00
2017-10-31T09:03:40.115Z,93.30
2017-10-31T09:06:08.375Z,93.20
2017-10-31T09:08:37.443Z,92.90
2017-10-31T09:11:05.731Z,92.90
2017-10-31T09:13:35.742Z,92.60
2017-10-31T09:16:03.998Z,92.60
2017-10-31T09:18:32.303Z,92.10
2017-10-31T09:21:00.554Z,92.60
2017-10-31T09:23:28.793Z,92.80
2017-10-31T09:25:57.179Z,92.80
2017-10-31T09:28:25.415Z,92.50
2017-10-31T09:30:55.312Z,91.90
2017-10-31T09:33:23.565Z,91.90
2017-10-31T09:35:54.760Z,91.60
2017-10-31T09:38:23.972Z,91.40
2017-10-31T09:40:54.442Z,91.40
2017-10-31T09:43:23.489Z,91.50
2017-10-31T09:45:53.693Z,91.50
2017-10-31T09:48:23.897Z,91.80
2017-10-31T09:50:53.245Z,91.80
2017-10-31T09:53:22.357Z,92.20
2017-10-31T09:55:51.622Z,92.20
2017-10-31T09:58:21.295Z,92.10
2017-10-31T10:00:50.474Z,92.20
2017-10-31T10:03:19.058Z,92.00
2017-10-31T10:05:49.158Z,91.80
2017-10-31T10:08:18.251Z,91.90
2017-10-31T10:10:46.542Z,91.90
2017-10-31T10:13:14.823Z,92.00
2017-10-31T10:15:44.574Z,91.30
2017-10-31T10:18:14.408Z,90.20
2017-10-31T10:20:45.296Z,90.20
2017-10-31T10:23:14.410Z,90.00
2017-10-31T10:25:43.176Z,89.20
2017-10-31T10:28:11.772Z,90.00
2017-10-31T10:30:41.925Z,89.40
2017-10-31T10:33:10.941Z,89.10
2017-10-31T10:35:40.095Z,90.60
2017-10-31T10:38:09.059Z,90.60
2017-10-31T10:40:38.615Z,90.30
2017-10-31T10:43:06.936Z,89.30
2017-10-31T10:45:36.093Z,90.20
2017-10-31T10:48:05.223Z,90.50
2017-10-31T10:50:34.282Z,91.30
2017-10-31T10:53:02.575Z,91.30
2017-10-31T10:55:30.830Z,91.20
2017-10-31T10:57:59.132Z,91.20
2017-10-31T11:00:33.039Z,91.10
2017-10-31T11:03:01.333Z,91.10
2017-10-31T11:05:29.623Z,90.60
2017-10-31T11:07:57.957Z,90.70
2017-10-31T11:10:26.201Z,90.80
2017-10-31T11:12:54.499Z,91.20
2017-10-31T11:15:22.848Z,91.30
2017-10-31T11:17:51.866Z,91.40
2017-10-31T11:20:20.180Z,91.30
2017-10-31T11:22:48.429Z,91.40
2017-10-31T11:25:16.672Z,91.30
2017-10-31T11:27:45.759Z,91.10
2017-10-31T11:30:14.021Z,90.90
2017-10-31T11:32:42.267Z,90.70
2017-10-31T11:35:10.565Z,90.60
2017-10-31T11:37:38.838Z,90.00
2017-10-31T11:40:07.130Z,90.10
2017-10-31T11:42:36.166Z,89.60
2017-10-31T11:45:04.493Z,89.60
2017-10-31T11:47:32.744Z,88.70
2017-10-31T11:50:01.016Z,89.40
2017-10-31T11:52:29.329Z,89.70
2017-10-31T11:54:57.607Z,88.10
2017-10-31T11:57:25.843Z,88.50
2017-10-31T11:59:54.130Z,87.40
2017-10-31T12:02:23.975Z,86.70
2017-10-31T12:04:52.230Z,88.00
2017-10-31T12:07:20.514Z,89.90
2017-10-31T12:09:49.736Z,88.60
2017-10-31T12:12:17.959Z,88.40
2017-10-31T12:14:50.276Z,87.90
2017-10-31T12:17:18.519Z,90.10
2017-10-31T12:19:46.812Z,90.40
2017-10-31T12:22:15.107Z,90.10
2017-10-31T12:24:43.381Z,90.20
2017-10-31T12:27:11.669Z,90.60
2017-10-31T12:29:39.964Z,90.30
2017-10-31T12:32:09.022Z,89.40
2017-10-31T12:34:37.377Z,89.30
2017-10-31T12:37:05.716Z,89.40
2017-10-31T12:39:34.080Z,88.90
2017-10-31T12:42:02.451Z,87.40
2017-10-31T12:44:30.812Z,87.20
2017-10-31T12:46:59.090Z,88.30
2017-10-31T12:49:27.382Z,87.80
2017-10-31T12:51:56.421Z,86.90
2017-10-31T12:54:24.729Z,86.80
2017-10-31T12:56:53.056Z,86.70
2017-10-31T12:59:22.240Z,86.70
2017-10-31T13:01:51.366Z,87.10
2017-10-31T13:04:20.440Z,86.60
2017-10-31T13:06:48.718Z,86.60
2017-10-31T13:09:17.070Z,86.10
2017-10-31T13:11:45.317Z,86.30
2017-10-31T13:14:13.662Z,86.60
2017-10-31T13:16:41.952Z,85.80
2017-10-31T13:19:10.326Z,86.80
2017-10-31T13:21:38.632Z,86.80
2017-10-31T13:24:06.912Z,87.20
2017-10-31T13:26:36.102Z,86.60
2017-10-31T13:29:05.152Z,85.70
2017-10-31T13:31:35.944Z,85.20
2017-10-31T13:34:05.138Z,85.10
2017-10-31T13:36:34.535Z,85.90
2017-10-31T13:39:04.112Z,85.40
2017-10-31T13:41:33.506Z,85.30
2017-10-31T13:44:02.785Z,85.60
2017-10-31T13:46:31.916Z,86.40
2017-10-31T13:49:01.201Z,86.80
2017-10-31T13:51:30.203Z,87.30
2017-10-31T13:53:59.450Z,86.80
2017-10-31T13:56:27.903Z,86.80
2017-10-31T13:58:56.939Z,86.00
2017-10-31T14:01:36.331Z,86.00
2017-10-31T14:04:06.563Z,86.80
2017-10-31T14:06:35.888Z,86.90
2017-10-31T14:09:05.288Z,86.60
2017-10-31T14:11:35.409Z,86.70
2017-10-31T14:14:03.837Z,87.20
2017-10-31T14:16:32.083Z,87.60
2017-10-31T14:19:00.376Z,87.80
2017-10-31T14:21:30.037Z,87.40
2017-10-31T14:23:59.224Z,87.10
2017-10-31T14:26:28.384Z,87.60
2017-10-31T14:28:56.621Z,87.50
2017-10-31T14:31:24.887Z,87.40
2017-10-31T14:33:54.254Z,86.60
2017-10-31T14:36:22.503Z,86.50
2017-10-31T14:38:51.123Z,86.60
2017-10-31T14:41:19.382Z,87.30
2017-10-31T14:43:48.468Z,88.70
2017-10-31T14:46:16.790Z,88.10
2017-10-31T14:48:45.372Z,88.20
2017-10-31T14:51:13.634Z,88.10
2017-10-31T14:53:42.685Z,89.00
2017-10-31T14:56:10.948Z,88.40
2017-10-31T14:58:39.244Z,88.10
2017-10-31T15:01:07.553Z,88.20
2017-10-31T15:03:36.108Z,88.70
2017-10-31T15:06:04.420Z,88.20
2017-10-31T15:08:32.812Z,87.80
2017-10-31T15:11:02.577Z,87.40
2017-10-31T15:13:30.873Z,87.40
2017-10-31T15:16:00.029Z,88.00
2017-10-31T15:18:28.410Z,88.50
2017-10-31T15:20:57.438Z,89.20
2017-10-31T15:23:25.713Z,89.20
2017-10-31T15:25:54.013Z,90.20
2017-10-31T15:28:23.085Z,90.30
2017-10-31T15:30:51.433Z,90.30
2017-10-31T15:33:20.718Z,91.00
2017-10-31T15:35:49.782Z,90.80
2017-10-31T15:38:18.099Z,90.80
2017-10-31T15:40:47.150Z,91.20
2017-10-31T15:43:15.472Z,91.20
2017-10-31T15:45:44.534Z,91.10
2017-10-31T15:48:12.817Z,91.10
2017-10-31T15:50:41.108Z,90.80
2017-10-31T15:53:09.383Z,90.90
2017-10-31T15:55:38.478Z,91.10
2017-10-31T15:58:08.316Z,91.00
2017-10-31T16:00:36.610Z,90.90
2017-10-31T16:03:06.361Z,91.00
2017-10-31T16:05:34.796Z,91.00
2017-10-31T16:08:03.064Z,91.20
2017-10-31T16:10:32.108Z,91.20
2017-10-31T16:13:00.352Z,91.20
2017-10-31T16:15:29.381Z,91.00
2017-10-31T16:17:57.722Z,90.90
2017-10-31T16:20:26.220Z,90.90
2017-10-31T16:22:54.484Z,91.00
2017-10-31T16:25:23.183Z,91.10
2017-10-31T16:27:52.036Z,91.00
2017-10-31T16:30:20.623Z,91.10
2017-10-31T16:32:49.696Z,91.20
2017-10-31T16:35:17.963Z,91.20
2017-10-31T16:37:46.386Z,91.40
2017-10-31T16:40:17.924Z,91.30
2017-10-31T16:42:49.242Z,91.30
2017-10-31T16:45:18.098Z,91.40
2017-10-31T16:47:46.420Z,91.20
2017-10-31T16:50:14.740Z,91.40
2017-10-31T16:52:43.777Z,91.70
2017-10-31T16:55:13.434Z,91.70
2017-10-31T16:57:42.721Z,92.00
2017-10-31T17:00:11.259Z,92.00
2017-10-31T17:02:41.071Z,92.10
2017-10-31T17:05:10.218Z,92.00
2017-10-31T17:07:38.603Z,92.10
2017-10-31T17:10:07.035Z,92.10
2017-10-31T17:12:35.308Z,92.30
2017-10-31T17:15:04.543Z,92.40
2017-10-31T17:17:34.281Z,92.00
2017-10-31T17:20:03.544Z,92.10
2017-10-31T17:22:31.966Z,92.40
2017-10-31T17:25:01.137Z,92.20
2017-10-31T17:27:31.085Z,92.30
2017-10-31T17:30:00.194Z,92.40
2017-10-31T17:32:30.957Z,92.40
2017-10-31T17:34:59.344Z,92.20
2017-10-31T17:37:30.000Z,92.00
2017-10-31T17:40:00.219Z,92.00
2017-10-31T17:42:28.589Z,92.10
2017-10-31T17:44:57.545Z,92.10
2017-10-31T17:47:25.833Z,92.20
2017-10-31T17:49:54.419Z,92.10
2017-10-31T17:52:23.167Z,92.00
2017-10-31T17:54:52.459Z,92.20
2017-10-31T17:57:20.739Z,92.30
2017-10-31T17:59:49.065Z,92.30
2017-10-31T18:02:17.338Z,92.20
2017-10-31T18:04:45.633Z,92.00
2017-10-31T18:07:15.034Z,92.00
2017-10-31T18:09:44.988Z,92.10
2017-10-31T18:12:14.070Z,92.00
2017-10-31T18:14:42.542Z,91.90
2017-10-31T18:17:11.981Z,91.80
2017-10-31T18:19:41.688Z,92.00
2017-10-31T18:22:10.028Z,92.20
2017-10-31T18:24:39.694Z,92.40
2017-10-31T18:27:09.431Z,92.90
2017-10-31T18:29:38.628Z,92.90
2017-10-31T18:32:07.036Z,93.00
2017-10-31T18:34:35.401Z,93.50
2017-10-31T18:37:03.685Z,93.60
2017-10-31T18:39:31.994Z,94.00
2017-10-31T18:42:00.288Z,94.20
2017-10-31T18:44:28.578Z,94.60
2017-10-31T18:46:57.590Z,95.10
2017-10-31T18:49:25.898Z,95.10
2017-10-31T18:51:54.878Z,95.30
2017-10-31T18:54:23.148Z,95.90
2017-10-31T18:56:52.317Z,95.50
2017-10-31T18:59:21.771Z,95.30
2017-10-31T19:01:50.172Z,95.30
2017-10-31T19:04:19.943Z,95.60
2017-10-31T19:06:50.608Z,95.60
2017-10-31T19:09:18.903Z,95.60
2017-10-31T19:11:47.314Z,95.40
2017-10-31T19:14:16.596Z,95.20
2017-10-31T19:16:44.889Z,95.20
2017-10-31T19:19:13.603Z,95.10
2017-10-31T19:21:43.516Z,94.80
2017-10-31T19:24:12.370Z,94.80
2017-10-31T19:26:40.854Z,94.60
2017-10-31T19:29:10.071Z,94.60
2017-10-31T19:31:39.941Z,94.40
2017-10-31T19:34:09.008Z,94.40
2017-10-31T19:36:38.486Z,94.20
2017-10-31T19:39:07.821Z,94.10
2017-10-31T19:41:36.254Z,94.10
2017-10-31T19:44:04.673Z,93.90
2017-10-31T19:46:33.003Z,94.10
2017-10-31T19:49:03.251Z,93.70
2017-10-31T19:51:31.505Z,93.70
2017-10-31T19:53:59.745Z,93.70
2017-10-31T19:56:28.678Z,93.60
2017-10-31T19:58:58.481Z,93.50
2017-10-31T20:01:30.252Z,93.30
2017-10-31T20:03:58.685Z,93.30
2017-10-31T20:06:29.221Z,93.40
2017-10-31T20:08:57.789Z,93.60
2017-10-31T20:11:26.087Z,93.20
2017-10-31T20:13:54.393Z,93.20
2017-10-31T20:16:25.721Z,93.00
2017-10-31T20:18:54.077Z,92.90
2017-10-31T20:21:22.360Z,93.10
2017-10-31T20:23:51.525Z,93.00
2017-10-31T20:26:21.241Z,93.00
2017-10-31T20:28:51.130Z,92.90
2017-10-31T20:31:19.638Z,92.90
2017-10-31T20:33:48.653Z,92.50
2017-10-31T20:36:18.743Z,92.70
2017-10-31T20:38:48.386Z,92.70
2017-10-31T20:41:16.645Z,92.50
2017-10-31T20:43:45.714Z,92.10
2017-10-31T20:46:13.971Z,92.10
2017-10-31T20:48:42.217Z,92.10
2017-10-31T20:51:10.505Z,92.40
2017-10-31T20:53:39.033Z,91.90
2017-10-31T20:56:07.951Z,92.00
2017-10-31T20:58:36.978Z,92.00
2017-10-31T21:01:05.273Z,92.00
2017-10-31T21:03:33.623Z,91.60
2017-10-31T21:06:03.289Z,91.80
2017-10-31T21:08:33.037Z,92.00
2017-10-31T21:11:02.619Z,92.00
2017-10-31T21:13:32.417Z,92.20
2017-10-31T21:16:00.666Z,92.60
2017-10-31T21:18:29.424Z,92.50
2017-10-31T21:20:58.275Z,92.50
2017-10-31T21:23:28.766Z,93.20
2017-10-31T21:25:57.085Z,93.20
2017-10-31T21:28:25.357Z,93.40
2017-10-31T21:30:53.730Z,93.80
2017-10-31T21:33:22.008Z,93.70
2017-10-31T21:35:50.248Z,94.20
2017-10-31T21:38:18.567Z,94.20
2017-10-31T21:40:46.799Z,94.80
2017-10-31T21:43:15.231Z,94.60
2017-10-31T21:45:43.464Z,95.10
2017-10-31T21:48:11.793Z,94.90
2017-10-31T21:50:40.088Z,95.40
2017-10-31T21:53:09.138Z,95.70
2017-10-31T21:55:37.374Z,95.60
2017-10-31T21:58:05.660Z,95.80
2017-10-31T22:00:33.938Z,96.10
2017-10-31T22:03:02.225Z,96.20
2017-10-31T22:05:30.803Z,96.50
2017-10-31T22:07:59.751Z,96.50
2017-10-31T22:10:28.784Z,96.80
2017-10-31T22:12:57.098Z,96.80
2017-10-31T22:15:25.299Z,96.80
2017-10-31T22:17:54.036Z,96.90
2017-10-31T22:20:22.272Z,96.70
2017-10-31T22:22:51.143Z,97.00
2017-10-31T22:25:22.625Z,97.00
2017-10-31T22:27:52.385Z,96.90
2017-10-31T22:30:21.631Z,96.90
2017-10-31T22:32:51.843Z,97.40
2017-10-31T22:35:20.096Z,97.10
2017-10-31T22:37:48.958Z,97.20
2017-10-31T22:40:18.163Z,97.30
2017-10-31T22:42:46.593Z,97.40
2017-10-31T22:45:14.904Z,97.70
2017-10-31T22:47:43.187Z,97.40
2017-10-31T22:50:11.493Z,97.70
2017-10-31T22:52:39.797Z,97.80
2017-10-31T22:55:08.816Z,97.70
2017-10-31T22:57:37.114Z,97.70
2017-10-31T23:00:05.430Z,97.60
2017-10-31T23:02:34.353Z,97.60
2017-10-31T23:05:02.718Z,97.50
2017-10-31T23:07:32.495Z,97.90
2017-10-31T23:10:00.798Z,97.90
2017-10-31T23:12:30.432Z,97.80
2017-10-31T23:14:58.748Z,97.80
2017-10-31T23:17:27.991Z,98.10
2017-10-31T23:19:56.251Z,98.20
2017-10-31T23:22:24.943Z,98.00
2017-10-31T23:24:53.243Z,97.80
2017-10-31T23:27:22.261Z,97.90
2017-10-31T23:29:50.527Z,97.80
2017-10-31T23:32:18.814Z,97.70
2017-10-31T23:34:48.189Z,97.90
2017-10-31T23:37:16.454Z,97.80
2017-10-31T23:39:44.726Z,97.90
2017-10-31T23:42:13.022Z,97.90
2017-10-31T23:44:41.276Z,97.80
2017-10-31T23:47:10.354Z,97.80
2017-10-31T23:49:38.619Z,97.80
2017-10-31T23:52:06.883Z,97.90
2017-10-31T23:54:35.180Z,97.90
2017-10-31T23:57:03.436Z,97.70
2017-10-31T23:59:32.515Z,97.60
